sensor_id;sensor_type;location;lat;lon;timestamp;P1;durP1;ratioP1;P2;durP2;ratioP2
80233;SDS011;69712;42.142;24.766;2024-03-02T00:00:13;36.47;;;19.67;;
80233;SDS011;69712;42.142;24.766;2024-03-02T00:02:43;43.30;;;20.65;;
80233;SDS011;69712;42.142;24.766;2024-03-02T00:05:10;41.60;;;21.42;;
80233;SDS011;69712;42.142;24.766;2024-03-02T00:07:43;44.40;;;21.65;;
80233;SDS011;69712;42.142;24.766;2024-03-02T00:10:11;42.72;;;21.55;;
80233;SDS011;69712;42.142;24.766;2024-03-02T00:12:41;44.20;;;21.95;;
80233;SDS011;69712;42.142;24.766;2024-03-02T00:17:56;43.42;;;22.05;;
80233;SDS011;69712;42.142;24.766;2024-03-02T00:20:24;45.35;;;22.95;;
80233;SDS011;69712;42.142;24.766;2024-03-02T00:22:55;40.65;;;21.90;;
80233;SDS011;69712;42.142;24.766;2024-03-02T00:25:38;45.28;;;22.05;;
80233;SDS011;69712;42.142;24.766;2024-03-02T00:28:13;48.72;;;22.45;;
80233;SDS011;69712;42.142;24.766;2024-03-02T00:30:57;39.97;;;22.33;;
80233;SDS011;69712;42.142;24.766;2024-03-02T00:33:27;40.70;;;22.05;;
80233;SDS011;69712;42.142;24.766;2024-03-02T00:36:01;44.58;;;22.92;;
80233;SDS011;69712;42.142;24.766;2024-03-02T00:38:28;44.88;;;22.13;;
80233;SDS011;69712;42.142;24.766;2024-03-02T00:40:59;47.97;;;23.70;;
80233;SDS011;69712;42.142;24.766;2024-03-02T00:46:07;48.45;;;22.63;;
80233;SDS011;69712;42.142;24.766;2024-03-02T00:48:33;48.33;;;23.58;;
80233;SDS011;69712;42.142;24.766;2024-03-02T00:51:02;46.58;;;23.63;;
80233;SDS011;69712;42.142;24.766;2024-03-02T00:53:31;47.17;;;23.70;;
80233;SDS011;69712;42.142;24.766;2024-03-02T00:55:58;49.30;;;24.40;;
80233;SDS011;69712;42.142;24.766;2024-03-02T00:58:25;51.95;;;24.70;;
80233;SDS011;69712;42.142;24.766;2024-03-02T01:00:51;53.13;;;24.85;;
80233;SDS011;69712;42.142;24.766;2024-03-02T01:03:17;53.95;;;24.92;;
80233;SDS011;69712;42.142;24.766;2024-03-02T01:05:44;54.20;;;25.30;;
80233;SDS011;69712;42.142;24.766;2024-03-02T01:08:10;53.95;;;24.58;;
80233;SDS011;69712;42.142;24.766;2024-03-02T01:10:36;55.42;;;25.05;;
80233;SDS011;69712;42.142;24.766;2024-03-02T01:13:02;56.17;;;25.30;;
80233;SDS011;69712;42.142;24.766;2024-03-02T01:15:28;57.08;;;25.33;;
80233;SDS011;69712;42.142;24.766;2024-03-02T01:17:54;64.20;;;25.95;;
80233;SDS011;69712;42.142;24.766;2024-03-02T01:20:19;67.28;;;27.33;;
80233;SDS011;69712;42.142;24.766;2024-03-02T01:22:45;58.95;;;26.63;;
80233;SDS011;69712;42.142;24.766;2024-03-02T01:25:12;64.95;;;25.63;;
80233;SDS011;69712;42.142;24.766;2024-03-02T01:27:38;68.22;;;27.05;;
80233;SDS011;69712;42.142;24.766;2024-03-02T01:30:04;70.53;;;27.55;;
80233;SDS011;69712;42.142;24.766;2024-03-02T01:32:31;74.68;;;27.25;;
80233;SDS011;69712;42.142;24.766;2024-03-02T01:34:57;71.15;;;25.30;;
80233;SDS011;69712;42.142;24.766;2024-03-02T01:37:23;78.20;;;28.70;;
80233;SDS011;69712;42.142;24.766;2024-03-02T01:39:48;74.22;;;27.15;;
80233;SDS011;69712;42.142;24.766;2024-03-02T01:42:14;82.65;;;28.10;;
80233;SDS011;69712;42.142;24.766;2024-03-02T01:44:40;78.32;;;27.73;;
80233;SDS011;69712;42.142;24.766;2024-03-02T01:47:06;84.57;;;29.40;;
80233;SDS011;69712;42.142;24.766;2024-03-02T01:49:32;70.75;;;27.00;;
80233;SDS011;69712;42.142;24.766;2024-03-02T01:51:59;80.53;;;27.40;;
80233;SDS011;69712;42.142;24.766;2024-03-02T01:54:25;73.30;;;26.60;;
80233;SDS011;69712;42.142;24.766;2024-03-02T01:56:50;69.95;;;25.40;;
80233;SDS011;69712;42.142;24.766;2024-03-02T01:59:16;78.03;;;28.48;;
80233;SDS011;69712;42.142;24.766;2024-03-02T02:01:43;71.93;;;26.67;;
80233;SDS011;69712;42.142;24.766;2024-03-02T02:04:08;70.65;;;27.75;;
80233;SDS011;69712;42.142;24.766;2024-03-02T02:06:34;66.43;;;26.58;;
80233;SDS011;69712;42.142;24.766;2024-03-02T02:09:00;67.00;;;25.70;;
80233;SDS011;69712;42.142;24.766;2024-03-02T02:11:26;64.25;;;26.13;;
80233;SDS011;69712;42.142;24.766;2024-03-02T02:13:52;66.28;;;27.35;;
80233;SDS011;69712;42.142;24.766;2024-03-02T02:16:20;52.88;;;22.13;;
80233;SDS011;69712;42.142;24.766;2024-03-02T02:18:46;51.10;;;23.75;;
80233;SDS011;69712;42.142;24.766;2024-03-02T02:21:12;52.20;;;23.98;;
80233;SDS011;69712;42.142;24.766;2024-03-02T02:23:38;51.28;;;22.80;;
80233;SDS011;69712;42.142;24.766;2024-03-02T02:26:04;48.35;;;23.25;;
80233;SDS011;69712;42.142;24.766;2024-03-02T02:28:30;49.03;;;24.17;;
80233;SDS011;69712;42.142;24.766;2024-03-02T02:30:55;51.65;;;24.30;;
80233;SDS011;69712;42.142;24.766;2024-03-02T02:33:21;52.53;;;23.33;;
80233;SDS011;69712;42.142;24.766;2024-03-02T02:35:47;49.38;;;23.30;;
80233;SDS011;69712;42.142;24.766;2024-03-02T02:38:13;49.10;;;21.98;;
80233;SDS011;69712;42.142;24.766;2024-03-02T02:40:39;47.38;;;20.98;;
80233;SDS011;69712;42.142;24.766;2024-03-02T02:43:05;51.60;;;23.08;;
80233;SDS011;69712;42.142;24.766;2024-03-02T02:45:32;55.17;;;23.63;;
80233;SDS011;69712;42.142;24.766;2024-03-02T02:47:57;49.35;;;22.55;;
80233;SDS011;69712;42.142;24.766;2024-03-02T02:50:23;55.47;;;25.50;;
80233;SDS011;69712;42.142;24.766;2024-03-02T02:52:49;54.58;;;23.63;;
80233;SDS011;69712;42.142;24.766;2024-03-02T02:55:15;53.58;;;23.17;;
80233;SDS011;69712;42.142;24.766;2024-03-02T02:57:41;47.90;;;24.13;;
80233;SDS011;69712;42.142;24.766;2024-03-02T03:00:14;47.00;;;23.58;;
80233;SDS011;69712;42.142;24.766;2024-03-02T03:02:50;51.08;;;23.15;;
80233;SDS011;69712;42.142;24.766;2024-03-02T03:05:17;49.22;;;23.75;;
80233;SDS011;69712;42.142;24.766;2024-03-02T03:07:43;49.08;;;24.42;;
80233;SDS011;69712;42.142;24.766;2024-03-02T03:10:10;52.95;;;24.40;;
80233;SDS011;69712;42.142;24.766;2024-03-02T03:12:36;52.28;;;23.73;;
80233;SDS011;69712;42.142;24.766;2024-03-02T03:15:11;46.75;;;22.67;;
80233;SDS011;69712;42.142;24.766;2024-03-02T03:17:37;52.00;;;23.73;;
80233;SDS011;69712;42.142;24.766;2024-03-02T03:20:03;46.10;;;23.08;;
80233;SDS011;69712;42.142;24.766;2024-03-02T03:22:30;47.28;;;22.48;;
80233;SDS011;69712;42.142;24.766;2024-03-02T03:25:00;49.22;;;22.10;;
80233;SDS011;69712;42.142;24.766;2024-03-02T03:27:26;54.17;;;23.98;;
80233;SDS011;69712;42.142;24.766;2024-03-02T03:29:51;53.50;;;23.50;;
80233;SDS011;69712;42.142;24.766;2024-03-02T03:32:17;51.97;;;23.70;;
80233;SDS011;69712;42.142;24.766;2024-03-02T03:34:43;48.47;;;22.88;;
80233;SDS011;69712;42.142;24.766;2024-03-02T03:37:09;51.10;;;23.60;;
80233;SDS011;69712;42.142;24.766;2024-03-02T03:39:35;48.75;;;23.33;;
80233;SDS011;69712;42.142;24.766;2024-03-02T03:42:01;45.30;;;22.42;;
80233;SDS011;69712;42.142;24.766;2024-03-02T03:44:27;51.90;;;23.95;;
80233;SDS011;69712;42.142;24.766;2024-03-02T03:46:52;49.80;;;22.98;;
80233;SDS011;69712;42.142;24.766;2024-03-02T03:49:18;51.90;;;23.52;;
80233;SDS011;69712;42.142;24.766;2024-03-02T03:51:44;48.65;;;22.90;;
80233;SDS011;69712;42.142;24.766;2024-03-02T03:54:09;51.30;;;23.30;;
80233;SDS011;69712;42.142;24.766;2024-03-02T03:56:36;55.20;;;24.90;;
80233;SDS011;69712;42.142;24.766;2024-03-02T03:59:02;55.50;;;23.05;;
80233;SDS011;69712;42.142;24.766;2024-03-02T04:01:29;55.83;;;24.50;;
80233;SDS011;69712;42.142;24.766;2024-03-02T04:03:56;61.55;;;24.50;;
80233;SDS011;69712;42.142;24.766;2024-03-02T04:06:23;52.65;;;24.63;;
80233;SDS011;69712;42.142;24.766;2024-03-02T04:08:49;51.85;;;24.88;;
80233;SDS011;69712;42.142;24.766;2024-03-02T04:11:15;52.38;;;24.83;;
80233;SDS011;69712;42.142;24.766;2024-03-02T04:13:41;55.30;;;26.20;;
80233;SDS011;69712;42.142;24.766;2024-03-02T04:16:07;57.63;;;26.00;;
80233;SDS011;69712;42.142;24.766;2024-03-02T04:18:33;55.88;;;26.35;;
80233;SDS011;69712;42.142;24.766;2024-03-02T04:20:59;53.58;;;26.15;;
80233;SDS011;69712;42.142;24.766;2024-03-02T04:23:25;56.10;;;25.27;;
80233;SDS011;69712;42.142;24.766;2024-03-02T04:25:51;54.72;;;25.40;;
80233;SDS011;69712;42.142;24.766;2024-03-02T04:28:17;56.05;;;24.58;;
80233;SDS011;69712;42.142;24.766;2024-03-02T04:30:42;51.63;;;23.20;;
80233;SDS011;69712;42.142;24.766;2024-03-02T04:33:08;49.78;;;23.30;;
80233;SDS011;69712;42.142;24.766;2024-03-02T04:35:35;57.03;;;23.27;;
80233;SDS011;69712;42.142;24.766;2024-03-02T04:38:01;49.97;;;22.60;;
80233;SDS011;69712;42.142;24.766;2024-03-02T04:40:28;52.20;;;20.90;;
80233;SDS011;69712;42.142;24.766;2024-03-02T04:42:53;57.88;;;23.50;;
80233;SDS011;69712;42.142;24.766;2024-03-02T04:45:19;54.15;;;23.55;;
80233;SDS011;69712;42.142;24.766;2024-03-02T04:47:45;49.40;;;22.17;;
80233;SDS011;69712;42.142;24.766;2024-03-02T04:50:10;54.88;;;22.42;;
80233;SDS011;69712;42.142;24.766;2024-03-02T04:52:36;56.08;;;23.10;;
80233;SDS011;69712;42.142;24.766;2024-03-02T04:55:02;44.70;;;19.17;;
80233;SDS011;69712;42.142;24.766;2024-03-02T04:57:35;59.20;;;23.37;;
80233;SDS011;69712;42.142;24.766;2024-03-02T05:00:00;56.58;;;24.00;;
80233;SDS011;69712;42.142;24.766;2024-03-02T05:02:26;57.58;;;23.33;;
80233;SDS011;69712;42.142;24.766;2024-03-02T05:04:52;63.35;;;23.55;;
80233;SDS011;69712;42.142;24.766;2024-03-02T05:07:18;55.53;;;22.88;;
80233;SDS011;69712;42.142;24.766;2024-03-02T05:09:44;55.50;;;22.42;;
80233;SDS011;69712;42.142;24.766;2024-03-02T05:12:09;62.80;;;23.98;;
80233;SDS011;69712;42.142;24.766;2024-03-02T05:14:45;59.95;;;23.13;;
80233;SDS011;69712;42.142;24.766;2024-03-02T05:17:11;57.05;;;22.05;;
80233;SDS011;69712;42.142;24.766;2024-03-02T05:19:37;54.08;;;21.50;;
80233;SDS011;69712;42.142;24.766;2024-03-02T05:22:03;53.63;;;21.90;;
80233;SDS011;69712;42.142;24.766;2024-03-02T05:24:29;53.85;;;21.83;;
80233;SDS011;69712;42.142;24.766;2024-03-02T05:26:55;43.42;;;20.50;;
80233;SDS011;69712;42.142;24.766;2024-03-02T05:29:38;48.63;;;20.83;;
80233;SDS011;69712;42.142;24.766;2024-03-02T05:32:03;45.80;;;20.42;;
80233;SDS011;69712;42.142;24.766;2024-03-02T05:34:29;43.22;;;19.85;;
80233;SDS011;69712;42.142;24.766;2024-03-02T05:36:56;47.03;;;21.20;;
80233;SDS011;69712;42.142;24.766;2024-03-02T05:39:23;45.40;;;20.38;;
80233;SDS011;69712;42.142;24.766;2024-03-02T05:41:48;45.50;;;20.67;;
80233;SDS011;69712;42.142;24.766;2024-03-02T05:44:14;48.63;;;21.67;;
80233;SDS011;69712;42.142;24.766;2024-03-02T05:46:40;43.85;;;21.15;;
80233;SDS011;69712;42.142;24.766;2024-03-02T05:49:07;45.88;;;20.52;;
80233;SDS011;69712;42.142;24.766;2024-03-02T05:51:35;46.55;;;20.85;;
80233;SDS011;69712;42.142;24.766;2024-03-02T05:54:01;43.85;;;18.75;;
80233;SDS011;69712;42.142;24.766;2024-03-02T05:56:27;47.15;;;20.35;;
80233;SDS011;69712;42.142;24.766;2024-03-02T05:58:53;50.30;;;20.88;;
80233;SDS011;69712;42.142;24.766;2024-03-02T06:01:44;43.28;;;19.70;;
80233;SDS011;69712;42.142;24.766;2024-03-02T06:04:11;39.70;;;20.17;;
80233;SDS011;69712;42.142;24.766;2024-03-02T06:06:37;43.65;;;20.25;;
80233;SDS011;69712;42.142;24.766;2024-03-02T06:09:04;46.22;;;20.20;;
80233;SDS011;69712;42.142;24.766;2024-03-02T06:11:33;40.80;;;20.15;;
80233;SDS011;69712;42.142;24.766;2024-03-02T06:13:59;46.55;;;20.55;;
80233;SDS011;69712;42.142;24.766;2024-03-02T06:16:25;40.00;;;18.30;;
80233;SDS011;69712;42.142;24.766;2024-03-02T06:18:50;41.42;;;20.60;;
80233;SDS011;69712;42.142;24.766;2024-03-02T06:21:16;38.58;;;18.88;;
80233;SDS011;69712;42.142;24.766;2024-03-02T06:23:43;42.38;;;19.38;;
80233;SDS011;69712;42.142;24.766;2024-03-02T06:26:09;36.47;;;18.65;;
80233;SDS011;69712;42.142;24.766;2024-03-02T06:28:35;36.92;;;18.35;;
80233;SDS011;69712;42.142;24.766;2024-03-02T06:31:01;36.00;;;18.02;;
80233;SDS011;69712;42.142;24.766;2024-03-02T06:33:27;37.90;;;18.83;;
80233;SDS011;69712;42.142;24.766;2024-03-02T06:35:53;36.20;;;18.20;;
80233;SDS011;69712;42.142;24.766;2024-03-02T06:38:19;37.53;;;18.08;;
80233;SDS011;69712;42.142;24.766;2024-03-02T06:40:45;35.85;;;17.77;;
80233;SDS011;69712;42.142;24.766;2024-03-02T06:43:11;35.03;;;17.90;;
80233;SDS011;69712;42.142;24.766;2024-03-02T06:45:37;35.25;;;17.15;;
80233;SDS011;69712;42.142;24.766;2024-03-02T06:48:03;34.45;;;18.13;;
80233;SDS011;69712;42.142;24.766;2024-03-02T06:50:29;36.35;;;17.48;;
80233;SDS011;69712;42.142;24.766;2024-03-02T06:52:55;33.53;;;17.33;;
80233;SDS011;69712;42.142;24.766;2024-03-02T06:55:21;29.73;;;14.90;;
80233;SDS011;69712;42.142;24.766;2024-03-02T06:57:47;36.40;;;18.88;;
80233;SDS011;69712;42.142;24.766;2024-03-02T07:00:13;34.67;;;17.10;;
80233;SDS011;69712;42.142;24.766;2024-03-02T07:02:39;38.33;;;18.38;;
80233;SDS011;69712;42.142;24.766;2024-03-02T07:05:07;33.00;;;16.52;;
80233;SDS011;69712;42.142;24.766;2024-03-02T07:07:33;29.23;;;16.23;;
80233;SDS011;69712;42.142;24.766;2024-03-02T07:10:00;33.03;;;16.40;;
80233;SDS011;69712;42.142;24.766;2024-03-02T07:12:26;33.15;;;16.40;;
80233;SDS011;69712;42.142;24.766;2024-03-02T07:14:52;33.03;;;16.30;;
80233;SDS011;69712;42.142;24.766;2024-03-02T07:17:36;32.53;;;17.23;;
80233;SDS011;69712;42.142;24.766;2024-03-02T07:20:02;30.67;;;15.98;;
80233;SDS011;69712;42.142;24.766;2024-03-02T07:22:32;28.10;;;15.52;;
80233;SDS011;69712;42.142;24.766;2024-03-02T07:24:58;28.90;;;16.48;;
80233;SDS011;69712;42.142;24.766;2024-03-02T07:27:24;26.65;;;15.70;;
80233;SDS011;69712;42.142;24.766;2024-03-02T07:29:49;27.35;;;16.05;;
80233;SDS011;69712;42.142;24.766;2024-03-02T07:32:15;32.47;;;17.67;;
80233;SDS011;69712;42.142;24.766;2024-03-02T07:34:41;28.15;;;15.07;;
80233;SDS011;69712;42.142;24.766;2024-03-02T07:37:07;29.70;;;16.48;;
80233;SDS011;69712;42.142;24.766;2024-03-02T07:39:32;32.50;;;16.48;;
80233;SDS011;69712;42.142;24.766;2024-03-02T07:41:59;27.98;;;15.50;;
80233;SDS011;69712;42.142;24.766;2024-03-02T07:44:25;29.98;;;16.25;;
80233;SDS011;69712;42.142;24.766;2024-03-02T07:46:51;30.63;;;16.05;;
80233;SDS011;69712;42.142;24.766;2024-03-02T07:49:17;29.30;;;16.13;;
80233;SDS011;69712;42.142;24.766;2024-03-02T07:51:44;32.40;;;16.80;;
80233;SDS011;69712;42.142;24.766;2024-03-02T07:54:10;31.55;;;17.50;;
80233;SDS011;69712;42.142;24.766;2024-03-02T07:56:36;25.35;;;14.20;;
80233;SDS011;69712;42.142;24.766;2024-03-02T07:59:02;28.20;;;15.10;;
80233;SDS011;69712;42.142;24.766;2024-03-02T08:01:28;28.63;;;15.35;;
80233;SDS011;69712;42.142;24.766;2024-03-02T08:03:59;27.70;;;15.45;;
80233;SDS011;69712;42.142;24.766;2024-03-02T08:06:26;27.58;;;15.10;;
80233;SDS011;69712;42.142;24.766;2024-03-02T08:08:59;26.55;;;15.07;;
80233;SDS011;69712;42.142;24.766;2024-03-02T08:13:56;25.95;;;14.52;;
80233;SDS011;69712;42.142;24.766;2024-03-02T08:16:22;27.92;;;15.30;;
80233;SDS011;69712;42.142;24.766;2024-03-02T08:18:49;27.25;;;15.00;;
80233;SDS011;69712;42.142;24.766;2024-03-02T08:21:14;27.48;;;15.02;;
80233;SDS011;69712;42.142;24.766;2024-03-02T08:23:41;27.40;;;14.60;;
80233;SDS011;69712;42.142;24.766;2024-03-02T08:26:11;23.92;;;14.25;;
80233;SDS011;69712;42.142;24.766;2024-03-02T08:28:37;25.30;;;13.52;;
80233;SDS011;69712;42.142;24.766;2024-03-02T08:31:05;24.88;;;14.18;;
80233;SDS011;69712;42.142;24.766;2024-03-02T08:33:32;26.13;;;14.27;;
80233;SDS011;69712;42.142;24.766;2024-03-02T08:35:57;23.00;;;13.82;;
80233;SDS011;69712;42.142;24.766;2024-03-02T08:38:24;28.15;;;15.73;;
80233;SDS011;69712;42.142;24.766;2024-03-02T08:40:50;24.35;;;14.10;;
80233;SDS011;69712;42.142;24.766;2024-03-02T08:43:16;22.08;;;13.52;;
80233;SDS011;69712;42.142;24.766;2024-03-02T08:45:42;23.88;;;14.27;;
80233;SDS011;69712;42.142;24.766;2024-03-02T08:48:08;24.65;;;13.55;;
80233;SDS011;69712;42.142;24.766;2024-03-02T08:50:37;25.13;;;14.13;;
80233;SDS011;69712;42.142;24.766;2024-03-02T08:53:03;26.08;;;13.80;;
80233;SDS011;69712;42.142;24.766;2024-03-02T08:55:29;27.05;;;15.48;;
80233;SDS011;69712;42.142;24.766;2024-03-02T08:57:55;32.10;;;16.13;;
80233;SDS011;69712;42.142;24.766;2024-03-02T09:00:21;29.40;;;15.65;;
80233;SDS011;69712;42.142;24.766;2024-03-02T09:02:47;35.42;;;16.73;;
80233;SDS011;69712;42.142;24.766;2024-03-02T09:05:13;32.15;;;15.35;;
80233;SDS011;69712;42.142;24.766;2024-03-02T09:07:39;30.80;;;15.38;;
80233;SDS011;69712;42.142;24.766;2024-03-02T09:10:07;30.08;;;16.23;;
80233;SDS011;69712;42.142;24.766;2024-03-02T09:12:33;29.85;;;15.80;;
80233;SDS011;69712;42.142;24.766;2024-03-02T09:15:00;27.50;;;15.57;;
80233;SDS011;69712;42.142;24.766;2024-03-02T09:17:26;33.63;;;16.67;;
80233;SDS011;69712;42.142;24.766;2024-03-02T09:19:52;36.97;;;17.40;;
80233;SDS011;69712;42.142;24.766;2024-03-02T09:22:18;33.33;;;16.20;;
80233;SDS011;69712;42.142;24.766;2024-03-02T09:24:44;32.58;;;17.23;;
80233;SDS011;69712;42.142;24.766;2024-03-02T09:27:10;33.80;;;17.65;;
80233;SDS011;69712;42.142;24.766;2024-03-02T09:29:36;31.70;;;17.02;;
80233;SDS011;69712;42.142;24.766;2024-03-02T09:32:02;31.08;;;17.30;;
80233;SDS011;69712;42.142;24.766;2024-03-02T09:34:29;34.55;;;18.80;;
80233;SDS011;69712;42.142;24.766;2024-03-02T09:36:54;33.17;;;19.05;;
80233;SDS011;69712;42.142;24.766;2024-03-02T09:39:20;41.70;;;20.23;;
80233;SDS011;69712;42.142;24.766;2024-03-02T09:41:47;38.70;;;18.25;;
80233;SDS011;69712;42.142;24.766;2024-03-02T09:44:13;35.38;;;17.60;;
80233;SDS011;69712;42.142;24.766;2024-03-02T09:46:39;35.63;;;17.98;;
80233;SDS011;69712;42.142;24.766;2024-03-02T09:49:05;33.53;;;18.55;;
80233;SDS011;69712;42.142;24.766;2024-03-02T09:51:31;36.05;;;18.00;;
80233;SDS011;69712;42.142;24.766;2024-03-02T09:53:57;39.25;;;19.67;;
80233;SDS011;69712;42.142;24.766;2024-03-02T09:56:25;36.85;;;19.08;;
80233;SDS011;69712;42.142;24.766;2024-03-02T09:58:51;34.88;;;19.33;;
80233;SDS011;69712;42.142;24.766;2024-03-02T10:01:17;37.95;;;19.33;;
80233;SDS011;69712;42.142;24.766;2024-03-02T10:03:44;33.60;;;17.80;;
80233;SDS011;69712;42.142;24.766;2024-03-02T10:06:21;30.48;;;17.17;;
80233;SDS011;69712;42.142;24.766;2024-03-02T10:08:48;33.45;;;18.02;;
80233;SDS011;69712;42.142;24.766;2024-03-02T10:11:25;42.20;;;19.70;;
80233;SDS011;69712;42.142;24.766;2024-03-02T10:16:33;33.05;;;17.52;;
80233;SDS011;69712;42.142;24.766;2024-03-02T10:19:19;33.50;;;17.80;;
80233;SDS011;69712;42.142;24.766;2024-03-02T10:24:16;36.72;;;18.95;;
80233;SDS011;69712;42.142;24.766;2024-03-02T10:26:45;38.05;;;18.63;;
80233;SDS011;69712;42.142;24.766;2024-03-02T10:29:12;36.08;;;19.02;;
80233;SDS011;69712;42.142;24.766;2024-03-02T10:31:38;40.58;;;19.00;;
80233;SDS011;69712;42.142;24.766;2024-03-02T10:34:08;37.35;;;19.05;;
80233;SDS011;69712;42.142;24.766;2024-03-02T10:36:36;38.97;;;19.05;;
80233;SDS011;69712;42.142;24.766;2024-03-02T10:39:03;34.38;;;18.30;;
80233;SDS011;69712;42.142;24.766;2024-03-02T10:41:33;36.25;;;18.33;;
80233;SDS011;69712;42.142;24.766;2024-03-02T10:44:04;37.17;;;19.23;;
80233;SDS011;69712;42.142;24.766;2024-03-02T10:46:31;34.50;;;18.60;;
80233;SDS011;69712;42.142;24.766;2024-03-02T10:48:59;32.92;;;17.58;;
80233;SDS011;69712;42.142;24.766;2024-03-02T10:51:27;32.00;;;18.30;;
80233;SDS011;69712;42.142;24.766;2024-03-02T10:53:57;34.55;;;18.45;;
80233;SDS011;69712;42.142;24.766;2024-03-02T10:56:27;32.33;;;18.30;;
80233;SDS011;69712;42.142;24.766;2024-03-02T10:59:02;33.50;;;18.50;;
80233;SDS011;69712;42.142;24.766;2024-03-02T11:01:31;32.05;;;18.85;;
80233;SDS011;69712;42.142;24.766;2024-03-02T11:03:59;33.50;;;20.40;;
80233;SDS011;69712;42.142;24.766;2024-03-02T11:06:29;34.92;;;20.38;;
80233;SDS011;69712;42.142;24.766;2024-03-02T11:08:58;38.53;;;21.42;;
80233;SDS011;69712;42.142;24.766;2024-03-02T11:11:32;42.17;;;21.15;;
80233;SDS011;69712;42.142;24.766;2024-03-02T11:14:01;41.03;;;21.40;;
80233;SDS011;69712;42.142;24.766;2024-03-02T11:19:02;38.88;;;20.52;;
80233;SDS011;69712;42.142;24.766;2024-03-02T11:21:35;38.22;;;21.30;;
80233;SDS011;69712;42.142;24.766;2024-03-02T11:26:46;35.97;;;21.67;;
80233;SDS011;69712;42.142;24.766;2024-03-02T11:32:00;38.47;;;21.35;;
80233;SDS011;69712;42.142;24.766;2024-03-02T11:34:30;40.85;;;21.80;;
80233;SDS011;69712;42.142;24.766;2024-03-02T11:37:03;35.33;;;19.83;;
80233;SDS011;69712;42.142;24.766;2024-03-02T11:39:29;37.38;;;21.35;;
80233;SDS011;69712;42.142;24.766;2024-03-02T11:41:59;39.15;;;21.23;;
80233;SDS011;69712;42.142;24.766;2024-03-02T11:44:28;40.50;;;21.90;;
80233;SDS011;69712;42.142;24.766;2024-03-02T11:47:00;41.78;;;24.13;;
80233;SDS011;69712;42.142;24.766;2024-03-02T11:52:06;41.75;;;23.52;;
80233;SDS011;69712;42.142;24.766;2024-03-02T11:54:36;41.60;;;24.17;;
80233;SDS011;69712;42.142;24.766;2024-03-02T11:57:11;40.47;;;24.05;;
80233;SDS011;69712;42.142;24.766;2024-03-02T11:59:39;32.42;;;20.42;;
80233;SDS011;69712;42.142;24.766;2024-03-02T12:02:05;28.33;;;19.67;;
80233;SDS011;69712;42.142;24.766;2024-03-02T12:04:31;27.70;;;19.05;;
80233;SDS011;69712;42.142;24.766;2024-03-02T12:07:00;23.48;;;17.25;;
80233;SDS011;69712;42.142;24.766;2024-03-02T12:09:27;23.90;;;16.45;;
80233;SDS011;69712;42.142;24.766;2024-03-02T12:12:08;23.65;;;17.20;;
80233;SDS011;69712;42.142;24.766;2024-03-02T12:14:36;25.50;;;17.60;;
80233;SDS011;69712;42.142;24.766;2024-03-02T12:17:03;25.73;;;17.50;;
80233;SDS011;69712;42.142;24.766;2024-03-02T12:19:31;21.60;;;15.80;;
80233;SDS011;69712;42.142;24.766;2024-03-02T12:22:00;24.13;;;17.25;;
80233;SDS011;69712;42.142;24.766;2024-03-02T12:24:27;23.23;;;17.42;;
80233;SDS011;69712;42.142;24.766;2024-03-02T12:26:54;22.30;;;15.95;;
80233;SDS011;69712;42.142;24.766;2024-03-02T12:29:20;23.67;;;16.67;;
80233;SDS011;69712;42.142;24.766;2024-03-02T12:31:52;25.95;;;16.98;;
80233;SDS011;69712;42.142;24.766;2024-03-02T12:34:18;27.70;;;19.55;;
80233;SDS011;69712;42.142;24.766;2024-03-02T12:36:47;26.90;;;18.27;;
80233;SDS011;69712;42.142;24.766;2024-03-02T12:39:15;25.67;;;17.80;;
80233;SDS011;69712;42.142;24.766;2024-03-02T12:41:46;32.22;;;21.55;;
80233;SDS011;69712;42.142;24.766;2024-03-02T12:44:12;26.67;;;18.55;;
80233;SDS011;69712;42.142;24.766;2024-03-02T12:46:37;26.70;;;19.13;;
80233;SDS011;69712;42.142;24.766;2024-03-02T12:49:09;25.95;;;18.58;;
80233;SDS011;69712;42.142;24.766;2024-03-02T12:51:37;27.55;;;19.08;;
80233;SDS011;69712;42.142;24.766;2024-03-02T12:54:06;28.15;;;18.80;;
80233;SDS011;69712;42.142;24.766;2024-03-02T12:56:33;25.73;;;19.02;;
80233;SDS011;69712;42.142;24.766;2024-03-02T12:58:59;29.23;;;19.88;;
80233;SDS011;69712;42.142;24.766;2024-03-02T13:01:25;28.38;;;20.52;;
80233;SDS011;69712;42.142;24.766;2024-03-02T13:03:52;28.25;;;20.15;;
80233;SDS011;69712;42.142;24.766;2024-03-02T13:06:20;27.33;;;20.55;;
80233;SDS011;69712;42.142;24.766;2024-03-02T13:08:46;36.38;;;23.88;;
80233;SDS011;69712;42.142;24.766;2024-03-02T13:11:12;29.08;;;20.88;;
80233;SDS011;69712;42.142;24.766;2024-03-02T13:13:39;33.33;;;22.17;;
80233;SDS011;69712;42.142;24.766;2024-03-02T13:16:09;31.98;;;21.05;;
80233;SDS011;69712;42.142;24.766;2024-03-02T13:18:35;31.45;;;22.17;;
80233;SDS011;69712;42.142;24.766;2024-03-02T13:21:04;29.55;;;20.98;;
80233;SDS011;69712;42.142;24.766;2024-03-02T13:23:30;31.52;;;22.48;;
80233;SDS011;69712;42.142;24.766;2024-03-02T13:25:56;36.13;;;25.30;;
80233;SDS011;69712;42.142;24.766;2024-03-02T13:28:23;32.95;;;23.35;;
80233;SDS011;69712;42.142;24.766;2024-03-02T13:30:52;30.67;;;22.33;;
80233;SDS011;69712;42.142;24.766;2024-03-02T13:33:18;39.05;;;25.73;;
80233;SDS011;69712;42.142;24.766;2024-03-02T13:35:48;35.83;;;24.77;;
80233;SDS011;69712;42.142;24.766;2024-03-02T13:38:20;38.03;;;24.95;;
80233;SDS011;69712;42.142;24.766;2024-03-02T13:40:46;30.48;;;22.50;;
80233;SDS011;69712;42.142;24.766;2024-03-02T13:43:16;32.22;;;22.83;;
80233;SDS011;69712;42.142;24.766;2024-03-02T13:45:43;45.30;;;32.40;;
80233;SDS011;69712;42.142;24.766;2024-03-02T13:48:09;38.40;;;26.65;;
80233;SDS011;69712;42.142;24.766;2024-03-02T13:50:35;33.72;;;23.95;;
80233;SDS011;69712;42.142;24.766;2024-03-02T13:53:00;34.60;;;24.13;;
80233;SDS011;69712;42.142;24.766;2024-03-02T13:55:28;32.10;;;21.98;;
80233;SDS011;69712;42.142;24.766;2024-03-02T13:57:54;33.42;;;23.05;;
80233;SDS011;69712;42.142;24.766;2024-03-02T14:00:20;32.10;;;23.48;;
80233;SDS011;69712;42.142;24.766;2024-03-02T14:02:46;32.78;;;23.75;;
80233;SDS011;69712;42.142;24.766;2024-03-02T14:05:14;33.17;;;21.50;;
80233;SDS011;69712;42.142;24.766;2024-03-02T14:07:41;30.63;;;19.95;;
80233;SDS011;69712;42.142;24.766;2024-03-02T14:10:07;30.00;;;19.67;;
80233;SDS011;69712;42.142;24.766;2024-03-02T14:12:33;31.35;;;22.33;;
80233;SDS011;69712;42.142;24.766;2024-03-02T14:14:59;28.92;;;19.08;;
80233;SDS011;69712;42.142;24.766;2024-03-02T14:17:27;27.58;;;20.83;;
80233;SDS011;69712;42.142;24.766;2024-03-02T14:19:53;23.83;;;18.58;;
80233;SDS011;69712;42.142;24.766;2024-03-02T14:22:19;21.40;;;15.65;;
80233;SDS011;69712;42.142;24.766;2024-03-02T14:24:45;22.52;;;16.02;;
80233;SDS011;69712;42.142;24.766;2024-03-02T14:27:12;23.40;;;17.45;;
80233;SDS011;69712;42.142;24.766;2024-03-02T14:29:39;22.60;;;17.13;;
80233;SDS011;69712;42.142;24.766;2024-03-02T14:32:06;22.05;;;16.58;;